sensor_id;sensor_type;location;lat;lon;timestamp;P1;durP1;ratioP1;P2;durP2;ratioP2
60492;SDS011;46341;51.290;-2.474;2022-10-18T00:00:32;12.25;;;8.02;;
60492;SDS011;46341;51.290;-2.474;2022-10-18T00:02:58;13.07;;;7.85;;
60492;SDS011;46341;51.290;-2.474;2022-10-18T00:05:24;11.07;;;7.57;;
60492;SDS011;46341;51.290;-2.474;2022-10-18T00:07:51;10.65;;;8.35;;
60492;SDS011;46341;51.290;-2.474;2022-10-18T00:10:17;13.82;;;7.47;;
60492;SDS011;46341;51.290;-2.474;2022-10-18T00:12:44;13.05;;;8.13;;
60492;SDS011;46341;51.290;-2.474;2022-10-18T00:15:15;10.98;;;7.57;;
60492;SDS011;46341;51.290;-2.474;2022-10-18T00:17:41;13.10;;;8.00;;
60492;SDS011;46341;51.290;-2.474;2022-10-18T00:20:08;10.35;;;7.35;;
60492;SDS011;46341;51.290;-2.474;2022-10-18T00:22:37;12.32;;;7.95;;
60492;SDS011;46341;51.290;-2.474;2022-10-18T00:25:04;29.58;;;9.45;;
60492;SDS011;46341;51.290;-2.474;2022-10-18T00:27:31;27.58;;;9.52;;
60492;SDS011;46341;51.290;-2.474;2022-10-18T00:29:58;24.25;;;10.63;;
60492;SDS011;46341;51.290;-2.474;2022-10-18T00:32:25;17.92;;;9.30;;
60492;SDS011;46341;51.290;-2.474;2022-10-18T00:34:51;20.13;;;9.95;;
60492;SDS011;46341;51.290;-2.474;2022-10-18T00:37:18;26.20;;;10.70;;
60492;SDS011;46341;51.290;-2.474;2022-10-18T00:39:44;28.90;;;12.10;;
60492;SDS011;46341;51.290;-2.474;2022-10-18T00:42:15;24.48;;;10.77;;
60492;SDS011;46341;51.290;-2.474;2022-10-18T00:47:08;22.77;;;9.98;;
60492;SDS011;46341;51.290;-2.474;2022-10-18T00:49:39;19.77;;;9.93;;
60492;SDS011;46341;51.290;-2.474;2022-10-18T00:52:08;25.70;;;10.10;;
60492;SDS011;46341;51.290;-2.474;2022-10-18T00:54:37;20.92;;;11.05;;
60492;SDS011;46341;51.290;-2.474;2022-10-18T00:57:04;20.85;;;10.65;;
60492;SDS011;46341;51.290;-2.474;2022-10-18T00:59:31;23.17;;;9.40;;
60492;SDS011;46341;51.290;-2.474;2022-10-18T01:01:57;23.92;;;10.10;;
60492;SDS011;46341;51.290;-2.474;2022-10-18T01:04:24;29.42;;;10.38;;
60492;SDS011;46341;51.290;-2.474;2022-10-18T01:09:38;16.60;;;9.23;;
60492;SDS011;46341;51.290;-2.474;2022-10-18T01:12:16;18.13;;;10.48;;
60492;SDS011;46341;51.290;-2.474;2022-10-18T01:14:51;20.20;;;10.48;;
60492;SDS011;46341;51.290;-2.474;2022-10-18T01:22:48;15.57;;;9.45;;
60492;SDS011;46341;51.290;-2.474;2022-10-18T01:32:47;18.13;;;10.65;;
60492;SDS011;46341;51.290;-2.474;2022-10-18T01:35:17;22.95;;;9.88;;
60492;SDS011;46341;51.290;-2.474;2022-10-18T01:37:45;19.75;;;11.23;;
60492;SDS011;46341;51.290;-2.474;2022-10-18T01:40:13;20.75;;;10.35;;
60492;SDS011;46341;51.290;-2.474;2022-10-18T01:42:41;20.70;;;10.63;;
60492;SDS011;46341;51.290;-2.474;2022-10-18T01:45:09;19.65;;;9.60;;
60492;SDS011;46341;51.290;-2.474;2022-10-18T01:50:04;26.83;;;10.13;;
60492;SDS011;46341;51.290;-2.474;2022-10-18T01:52:31;28.48;;;10.75;;
60492;SDS011;46341;51.290;-2.474;2022-10-18T01:54:58;25.35;;;10.05;;
60492;SDS011;46341;51.290;-2.474;2022-10-18T02:00:15;24.98;;;9.50;;
60492;SDS011;46341;51.290;-2.474;2022-10-18T02:10:48;29.08;;;8.32;;
60492;SDS011;46341;51.290;-2.474;2022-10-18T02:13:16;17.02;;;9.00;;
60492;SDS011;46341;51.290;-2.474;2022-10-18T02:15:47;25.63;;;9.20;;
60492;SDS011;46341;51.290;-2.474;2022-10-18T02:18:15;30.15;;;10.07;;
60492;SDS011;46341;51.290;-2.474;2022-10-18T02:20:43;25.85;;;9.48;;
60492;SDS011;46341;51.290;-2.474;2022-10-18T02:23:10;18.25;;;9.55;;
60492;SDS011;46341;51.290;-2.474;2022-10-18T02:25:38;15.20;;;8.48;;
60492;SDS011;46341;51.290;-2.474;2022-10-18T02:28:05;14.82;;;9.25;;
60492;SDS011;46341;51.290;-2.474;2022-10-18T02:31:35;18.13;;;9.02;;
60492;SDS011;46341;51.290;-2.474;2022-10-18T02:36:21;16.45;;;8.50;;
60492;SDS011;46341;51.290;-2.474;2022-10-18T02:38:49;16.02;;;8.20;;
60492;SDS011;46341;51.290;-2.474;2022-10-18T02:41:24;14.48;;;8.38;;
60492;SDS011;46341;51.290;-2.474;2022-10-18T02:43:51;16.10;;;7.40;;
60492;SDS011;46341;51.290;-2.474;2022-10-18T02:46:18;14.68;;;8.77;;
60492;SDS011;46341;51.290;-2.474;2022-10-18T02:48:45;15.23;;;7.07;;
60492;SDS011;46341;51.290;-2.474;2022-10-18T02:51:11;16.10;;;4.90;;
60492;SDS011;46341;51.290;-2.474;2022-10-18T02:53:38;11.65;;;6.10;;
60492;SDS011;46341;51.290;-2.474;2022-10-18T02:56:04;16.38;;;5.55;;
60492;SDS011;46341;51.290;-2.474;2022-10-18T02:58:31;13.60;;;5.10;;
60492;SDS011;46341;51.290;-2.474;2022-10-18T03:00:57;14.23;;;5.50;;
60492;SDS011;46341;51.290;-2.474;2022-10-18T03:03:23;9.85;;;5.30;;
60492;SDS011;46341;51.290;-2.474;2022-10-18T03:05:50;11.70;;;5.07;;
60492;SDS011;46341;51.290;-2.474;2022-10-18T03:08:17;14.10;;;4.85;;
60492;SDS011;46341;51.290;-2.474;2022-10-18T03:10:44;9.55;;;4.32;;
60492;SDS011;46341;51.290;-2.474;2022-10-18T03:13:11;10.80;;;4.90;;
60492;SDS011;46341;51.290;-2.474;2022-10-18T03:15:37;9.43;;;4.53;;
60492;SDS011;46341;51.290;-2.474;2022-10-18T03:18:04;13.90;;;5.43;;
60492;SDS011;46341;51.290;-2.474;2022-10-18T03:20:30;15.50;;;4.32;;
60492;SDS011;46341;51.290;-2.474;2022-10-18T03:22:57;20.00;;;4.60;;
60492;SDS011;46341;51.290;-2.474;2022-10-18T03:25:23;30.13;;;5.05;;
60492;SDS011;46341;51.290;-2.474;2022-10-18T03:27:49;27.13;;;4.22;;
60492;SDS011;46341;51.290;-2.474;2022-10-18T03:30:16;19.15;;;4.15;;
60492;SDS011;46341;51.290;-2.474;2022-10-18T03:32:42;16.52;;;3.88;;
60492;SDS011;46341;51.290;-2.474;2022-10-18T03:35:09;20.98;;;4.30;;
60492;SDS011;46341;51.290;-2.474;2022-10-18T03:37:35;16.15;;;4.45;;
60492;SDS011;46341;51.290;-2.474;2022-10-18T03:40:02;21.83;;;4.22;;
60492;SDS011;46341;51.290;-2.474;2022-10-18T03:42:28;13.57;;;4.10;;
60492;SDS011;46341;51.290;-2.474;2022-10-18T03:44:55;16.40;;;4.38;;
60492;SDS011;46341;51.290;-2.474;2022-10-18T03:47:22;15.98;;;3.53;;
60492;SDS011;46341;51.290;-2.474;2022-10-18T03:49:48;7.70;;;3.35;;
60492;SDS011;46341;51.290;-2.474;2022-10-18T03:52:19;7.22;;;3.47;;
60492;SDS011;46341;51.290;-2.474;2022-10-18T03:54:46;9.95;;;3.15;;
60492;SDS011;46341;51.290;-2.474;2022-10-18T03:57:12;4.57;;;3.00;;
60492;SDS011;46341;51.290;-2.474;2022-10-18T03:59:38;17.45;;;3.45;;
60492;SDS011;46341;51.290;-2.474;2022-10-18T04:02:05;8.48;;;3.45;;
60492;SDS011;46341;51.290;-2.474;2022-10-18T04:04:31;9.13;;;3.50;;
60492;SDS011;46341;51.290;-2.474;2022-10-18T04:06:58;12.20;;;3.78;;
60492;SDS011;46341;51.290;-2.474;2022-10-18T04:09:24;8.75;;;4.20;;
60492;SDS011;46341;51.290;-2.474;2022-10-18T04:11:50;10.98;;;4.05;;
60492;SDS011;46341;51.290;-2.474;2022-10-18T04:14:17;7.28;;;3.78;;
60492;SDS011;46341;51.290;-2.474;2022-10-18T04:16:46;14.13;;;4.07;;
60492;SDS011;46341;51.290;-2.474;2022-10-18T04:19:12;10.02;;;3.83;;
60492;SDS011;46341;51.290;-2.474;2022-10-18T04:21:39;9.23;;;4.07;;
60492;SDS011;46341;51.290;-2.474;2022-10-18T04:24:05;9.73;;;3.33;;
60492;SDS011;46341;51.290;-2.474;2022-10-18T04:26:31;9.15;;;3.67;;
60492;SDS011;46341;51.290;-2.474;2022-10-18T04:28:58;9.00;;;3.88;;
60492;SDS011;46341;51.290;-2.474;2022-10-18T04:31:24;9.38;;;4.00;;
60492;SDS011;46341;51.290;-2.474;2022-10-18T04:33:51;21.20;;;4.60;;
60492;SDS011;46341;51.290;-2.474;2022-10-18T04:36:17;10.85;;;4.07;;
60492;SDS011;46341;51.290;-2.474;2022-10-18T04:38:44;10.38;;;4.25;;
60492;SDS011;46341;51.290;-2.474;2022-10-18T04:41:10;17.42;;;4.35;;
60492;SDS011;46341;51.290;-2.474;2022-10-18T04:43:36;9.70;;;4.10;;
60492;SDS011;46341;51.290;-2.474;2022-10-18T04:46:03;11.95;;;4.03;;
60492;SDS011;46341;51.290;-2.474;2022-10-18T04:48:29;8.27;;;4.20;;
60492;SDS011;46341;51.290;-2.474;2022-10-18T04:50:55;22.60;;;4.15;;
60492;SDS011;46341;51.290;-2.474;2022-10-18T04:53:22;22.45;;;4.07;;
60492;SDS011;46341;51.290;-2.474;2022-10-18T04:55:49;26.50;;;4.15;;
60492;SDS011;46341;51.290;-2.474;2022-10-18T04:58:16;17.85;;;4.15;;
60492;SDS011;46341;51.290;-2.474;2022-10-18T05:00:42;14.20;;;3.92;;
60492;SDS011;46341;51.290;-2.474;2022-10-18T05:03:10;13.20;;;4.45;;
60492;SDS011;46341;51.290;-2.474;2022-10-18T05:08:23;10.95;;;3.42;;
60492;SDS011;46341;51.290;-2.474;2022-10-18T05:10:50;24.13;;;4.65;;
60492;SDS011;46341;51.290;-2.474;2022-10-18T05:13:16;28.83;;;4.57;;
60492;SDS011;46341;51.290;-2.474;2022-10-18T05:15:42;12.32;;;3.50;;
60492;SDS011;46341;51.290;-2.474;2022-10-18T05:18:11;21.08;;;4.15;;
60492;SDS011;46341;51.290;-2.474;2022-10-18T05:20:37;11.32;;;3.88;;
60492;SDS011;46341;51.290;-2.474;2022-10-18T05:23:03;12.60;;;3.60;;
60492;SDS011;46341;51.290;-2.474;2022-10-18T05:25:30;15.10;;;3.63;;
60492;SDS011;46341;51.290;-2.474;2022-10-18T05:27:56;14.48;;;4.00;;
60492;SDS011;46341;51.290;-2.474;2022-10-18T05:30:23;17.90;;;4.03;;
60492;SDS011;46341;51.290;-2.474;2022-10-18T05:32:49;7.97;;;4.60;;
60492;SDS011;46341;51.290;-2.474;2022-10-18T05:35:15;15.60;;;3.90;;
60492;SDS011;46341;51.290;-2.474;2022-10-18T05:37:42;12.73;;;4.00;;
60492;SDS011;46341;51.290;-2.474;2022-10-18T05:40:08;9.05;;;3.55;;
60492;SDS011;46341;51.290;-2.474;2022-10-18T05:42:35;11.98;;;3.63;;
60492;SDS011;46341;51.290;-2.474;2022-10-18T05:45:01;10.05;;;3.20;;
60492;SDS011;46341;51.290;-2.474;2022-10-18T05:47:28;10.90;;;3.20;;
60492;SDS011;46341;51.290;-2.474;2022-10-18T05:49:54;12.57;;;3.50;;
60492;SDS011;46341;51.290;-2.474;2022-10-18T05:52:21;6.35;;;3.50;;
60492;SDS011;46341;51.290;-2.474;2022-10-18T05:54:47;9.70;;;3.70;;
60492;SDS011;46341;51.290;-2.474;2022-10-18T05:57:14;8.63;;;3.85;;
60492;SDS011;46341;51.290;-2.474;2022-10-18T05:59:40;9.32;;;4.13;;
60492;SDS011;46341;51.290;-2.474;2022-10-18T06:02:08;11.10;;;4.20;;
60492;SDS011;46341;51.290;-2.474;2022-10-18T06:07:01;10.65;;;4.07;;
60492;SDS011;46341;51.290;-2.474;2022-10-18T06:09:27;14.95;;;4.10;;
60492;SDS011;46341;51.290;-2.474;2022-10-18T06:11:55;14.15;;;4.60;;
60492;SDS011;46341;51.290;-2.474;2022-10-18T06:14:22;16.80;;;4.23;;
60492;SDS011;46341;51.290;-2.474;2022-10-18T06:16:49;13.80;;;4.90;;
60492;SDS011;46341;51.290;-2.474;2022-10-18T06:19:15;16.80;;;5.18;;
60492;SDS011;46341;51.290;-2.474;2022-10-18T06:21:42;12.05;;;4.43;;
60492;SDS011;46341;51.290;-2.474;2022-10-18T06:24:09;18.50;;;4.18;;
60492;SDS011;46341;51.290;-2.474;2022-10-18T06:26:35;15.20;;;4.03;;
60492;SDS011;46341;51.290;-2.474;2022-10-18T06:29:01;20.88;;;3.83;;
60492;SDS011;46341;51.290;-2.474;2022-10-18T06:31:28;9.30;;;3.85;;
60492;SDS011;46341;51.290;-2.474;2022-10-18T06:33:55;15.73;;;4.07;;
60492;SDS011;46341;51.290;-2.474;2022-10-18T06:36:23;13.00;;;3.95;;
60492;SDS011;46341;51.290;-2.474;2022-10-18T06:38:49;10.10;;;3.42;;
60492;SDS011;46341;51.290;-2.474;2022-10-18T06:41:16;11.60;;;3.60;;
60492;SDS011;46341;51.290;-2.474;2022-10-18T06:43:46;12.02;;;3.50;;
60492;SDS011;46341;51.290;-2.474;2022-10-18T06:46:12;12.88;;;3.60;;
60492;SDS011;46341;51.290;-2.474;2022-10-18T06:48:39;15.88;;;3.47;;
60492;SDS011;46341;51.290;-2.474;2022-10-18T06:51:06;12.70;;;3.75;;
60492;SDS011;46341;51.290;-2.474;2022-10-18T06:53:34;11.43;;;3.80;;
60492;SDS011;46341;51.290;-2.474;2022-10-18T06:56:10;11.25;;;3.20;;
60492;SDS011;46341;51.290;-2.474;2022-10-18T06:58:36;6.78;;;3.08;;
60492;SDS011;46341;51.290;-2.474;2022-10-18T07:01:06;12.70;;;3.78;;
60492;SDS011;46341;51.290;-2.474;2022-10-18T07:03:33;15.23;;;3.40;;
60492;SDS011;46341;51.290;-2.474;2022-10-18T07:06:03;10.43;;;3.00;;
60492;SDS011;46341;51.290;-2.474;2022-10-18T07:08:30;11.73;;;3.75;;
60492;SDS011;46341;51.290;-2.474;2022-10-18T07:10:56;12.93;;;3.97;;
60492;SDS011;46341;51.290;-2.474;2022-10-18T07:13:23;13.02;;;3.60;;
60492;SDS011;46341;51.290;-2.474;2022-10-18T07:15:59;13.02;;;3.22;;
60492;SDS011;46341;51.290;-2.474;2022-10-18T07:18:25;7.78;;;3.13;;
60492;SDS011;46341;51.290;-2.474;2022-10-18T07:20:52;9.45;;;2.83;;
60492;SDS011;46341;51.290;-2.474;2022-10-18T07:23:18;12.90;;;3.65;;
60492;SDS011;46341;51.290;-2.474;2022-10-18T07:25:46;10.38;;;3.38;;
60492;SDS011;46341;51.290;-2.474;2022-10-18T07:28:12;12.20;;;3.20;;
60492;SDS011;46341;51.290;-2.474;2022-10-18T07:30:39;18.80;;;3.67;;
60492;SDS011;46341;51.290;-2.474;2022-10-18T07:33:05;14.77;;;3.80;;
60492;SDS011;46341;51.290;-2.474;2022-10-18T07:35:31;11.15;;;3.05;;
60492;SDS011;46341;51.290;-2.474;2022-10-18T07:37:58;14.40;;;3.63;;
60492;SDS011;46341;51.290;-2.474;2022-10-18T07:40:24;12.35;;;2.38;;
60492;SDS011;46341;51.290;-2.474;2022-10-18T07:42:51;14.93;;;3.10;;
60492;SDS011;46341;51.290;-2.474;2022-10-18T07:45:17;18.55;;;3.88;;
60492;SDS011;46341;51.290;-2.474;2022-10-18T07:47:43;22.15;;;3.17;;
60492;SDS011;46341;51.290;-2.474;2022-10-18T07:50:10;20.33;;;3.40;;
60492;SDS011;46341;51.290;-2.474;2022-10-18T07:52:36;11.05;;;2.50;;
60492;SDS011;46341;51.290;-2.474;2022-10-18T07:55:03;52.40;;;4.22;;
60492;SDS011;46341;51.290;-2.474;2022-10-18T07:57:29;16.92;;;3.25;;
60492;SDS011;46341;51.290;-2.474;2022-10-18T07:59:56;16.25;;;3.10;;
60492;SDS011;46341;51.290;-2.474;2022-10-18T08:02:22;7.63;;;3.00;;
60492;SDS011;46341;51.290;-2.474;2022-10-18T08:04:49;21.65;;;3.83;;
60492;SDS011;46341;51.290;-2.474;2022-10-18T08:07:15;10.07;;;3.28;;
60492;SDS011;46341;51.290;-2.474;2022-10-18T08:09:42;14.55;;;3.45;;
60492;SDS011;46341;51.290;-2.474;2022-10-18T08:12:08;8.65;;;2.90;;
60492;SDS011;46341;51.290;-2.474;2022-10-18T08:14:35;16.70;;;3.30;;
60492;SDS011;46341;51.290;-2.474;2022-10-18T08:17:01;31.30;;;4.43;;
60492;SDS011;46341;51.290;-2.474;2022-10-18T08:19:28;24.67;;;4.13;;
60492;SDS011;46341;51.290;-2.474;2022-10-18T08:21:54;23.13;;;3.65;;
60492;SDS011;46341;51.290;-2.474;2022-10-18T08:24:21;7.10;;;2.92;;
60492;SDS011;46341;51.290;-2.474;2022-10-18T08:26:48;4.57;;;2.72;;
60492;SDS011;46341;51.290;-2.474;2022-10-18T08:29:14;25.50;;;4.47;;
60492;SDS011;46341;51.290;-2.474;2022-10-18T08:31:50;13.32;;;3.00;;
60492;SDS011;46341;51.290;-2.474;2022-10-18T08:34:17;21.67;;;4.03;;
60492;SDS011;46341;51.290;-2.474;2022-10-18T08:39:11;9.50;;;2.83;;
60492;SDS011;46341;51.290;-2.474;2022-10-18T08:44:18;34.17;;;4.90;;
60492;SDS011;46341;51.290;-2.474;2022-10-18T08:46:49;10.68;;;3.03;;
60492;SDS011;46341;51.290;-2.474;2022-10-18T08:49:21;4.05;;;2.60;;
60492;SDS011;46341;51.290;-2.474;2022-10-18T08:51:49;13.98;;;3.40;;
60492;SDS011;46341;51.290;-2.474;2022-10-18T08:54:30;5.68;;;2.60;;
60492;SDS011;46341;51.290;-2.474;2022-10-18T08:56:59;17.95;;;3.28;;
60492;SDS011;46341;51.290;-2.474;2022-10-18T08:59:31;16.38;;;3.60;;
60492;SDS011;46341;51.290;-2.474;2022-10-18T09:02:34;9.13;;;3.30;;
60492;SDS011;46341;51.290;-2.474;2022-10-18T09:10:38;5.55;;;3.08;;
60492;SDS011;46341;51.290;-2.474;2022-10-18T09:15:58;10.95;;;4.22;;
60492;SDS011;46341;51.290;-2.474;2022-10-18T09:20:58;8.48;;;3.08;;
60492;SDS011;46341;51.290;-2.474;2022-10-18T09:26:21;12.63;;;4.07;;
60492;SDS011;46341;51.290;-2.474;2022-10-18T09:34:30;12.10;;;4.18;;
60492;SDS011;46341;51.290;-2.474;2022-10-18T09:36:58;3.78;;;3.45;;
60492;SDS011;46341;51.290;-2.474;2022-10-18T09:39:27;8.93;;;3.08;;
60492;SDS011;46341;51.290;-2.474;2022-10-18T09:44:34;3.53;;;3.13;;
60492;SDS011;46341;51.290;-2.474;2022-10-18T09:47:25;4.95;;;3.30;;
60492;SDS011;46341;51.290;-2.474;2022-10-18T09:49:51;5.53;;;3.22;;
60492;SDS011;46341;51.290;-2.474;2022-10-18T09:52:22;4.35;;;3.47;;
60492;SDS011;46341;51.290;-2.474;2022-10-18T09:54:51;3.72;;;3.42;;
60492;SDS011;46341;51.290;-2.474;2022-10-18T09:57:21;4.70;;;3.65;;
60492;SDS011;46341;51.290;-2.474;2022-10-18T09:59:49;5.65;;;3.88;;
60492;SDS011;46341;51.290;-2.474;2022-10-18T10:02:16;4.70;;;3.90;;
60492;SDS011;46341;51.290;-2.474;2022-10-18T10:07:14;4.32;;;3.92;;
60492;SDS011;46341;51.290;-2.474;2022-10-18T10:09:54;3.92;;;3.30;;
60492;SDS011;46341;51.290;-2.474;2022-10-18T10:14:53;4.70;;;3.55;;
60492;SDS011;46341;51.290;-2.474;2022-10-18T10:17:21;4.07;;;3.70;;
60492;SDS011;46341;51.290;-2.474;2022-10-18T10:19:56;5.55;;;3.30;;
60492;SDS011;46341;51.290;-2.474;2022-10-18T10:22:30;3.33;;;3.03;;
60492;SDS011;46341;51.290;-2.474;2022-10-18T10:24:57;2.50;;;2.30;;
60492;SDS011;46341;51.290;-2.474;2022-10-18T10:27:37;3.10;;;2.20;;
60492;SDS011;46341;51.290;-2.474;2022-10-18T10:32:48;2.50;;;2.00;;
60492;SDS011;46341;51.290;-2.474;2022-10-18T10:38:23;2.15;;;1.80;;
60492;SDS011;46341;51.290;-2.474;2022-10-18T10:40:50;2.90;;;1.73;;
60492;SDS011;46341;51.290;-2.474;2022-10-18T10:43:32;2.05;;;1.58;;
60492;SDS011;46341;51.290;-2.474;2022-10-18T10:46:11;2.35;;;1.85;;
60492;SDS011;46341;51.290;-2.474;2022-10-18T10:48:40;2.28;;;1.80;;
60492;SDS011;46341;51.290;-2.474;2022-10-18T10:51:10;3.20;;;2.00;;
60492;SDS011;46341;51.290;-2.474;2022-10-18T10:53:38;3.42;;;1.50;;
60492;SDS011;46341;51.290;-2.474;2022-10-18T10:56:11;2.50;;;1.25;;
60492;SDS011;46341;51.290;-2.474;2022-10-18T10:58:41;2.83;;;1.50;;
60492;SDS011;46341;51.290;-2.474;2022-10-18T11:01:18;2.58;;;1.05;;
60492;SDS011;46341;51.290;-2.474;2022-10-18T11:03:46;2.35;;;1.23;;
60492;SDS011;46341;51.290;-2.474;2022-10-18T11:06:28;4.28;;;1.15;;
60492;SDS011;46341;51.290;-2.474;2022-10-18T11:08:57;3.38;;;1.13;;
60492;SDS011;46341;51.290;-2.474;2022-10-18T11:11:26;2.50;;;1.00;;
60492;SDS011;46341;51.290;-2.474;2022-10-18T11:13:57;4.32;;;1.00;;
60492;SDS011;46341;51.290;-2.474;2022-10-18T11:24:28;3.15;;;1.15;;
60492;SDS011;46341;51.290;-2.474;2022-10-18T11:26:57;2.47;;;1.20;;
60492;SDS011;46341;51.290;-2.474;2022-10-18T11:43:09;3.05;;;1.10;;
60492;SDS011;46341;51.290;-2.474;2022-10-18T11:45:44;2.13;;;1.00;;
60492;SDS011;46341;51.290;-2.474;2022-10-18T11:48:21;2.13;;;1.00;;
60492;SDS011;46341;51.290;-2.474;2022-10-18T11:50:56;3.25;;;1.42;;
60492;SDS011;46341;51.290;-2.474;2022-10-18T11:53:39;3.50;;;1.27;;
60492;SDS011;46341;51.290;-2.474;2022-10-18T11:56:13;2.30;;;1.10;;
60492;SDS011;46341;51.290;-2.474;2022-10-18T12:06:18;2.15;;;1.23;;
60492;SDS011;46341;51.290;-2.474;2022-10-18T12:08:47;2.03;;;1.35;;
60492;SDS011;46341;51.290;-2.474;2022-10-18T12:11:16;2.75;;;1.20;;
60492;SDS011;46341;51.290;-2.474;2022-10-18T12:13:48;2.90;;;1.40;;
60492;SDS011;46341;51.290;-2.474;2022-10-18T12:16:16;2.97;;;1.40;;
60492;SDS011;46341;51.290;-2.474;2022-10-18T12:19:06;1.90;;;1.30;;
60492;SDS011;46341;51.290;-2.474;2022-10-18T12:21:36;3.10;;;1.38;;
60492;SDS011;46341;51.290;-2.474;2022-10-18T12:24:05;3.00;;;1.40;;
60492;SDS011;46341;51.290;-2.474;2022-10-18T12:26:33;4.38;;;1.52;;
60492;SDS011;46341;51.290;-2.474;2022-10-18T12:38:52;4.22;;;1.50;;
60492;SDS011;46341;51.290;-2.474;2022-10-18T12:41:21;3.50;;;1.70;;
60492;SDS011;46341;51.290;-2.474;2022-10-18T12:43:51;3.17;;;1.63;;
60492;SDS011;46341;51.290;-2.474;2022-10-18T12:46:18;5.35;;;1.70;;
60492;SDS011;46341;51.290;-2.474;2022-10-18T12:48:49;5.20;;;1.92;;
60492;SDS011;46341;51.290;-2.474;2022-10-18T12:51:25;3.83;;;1.90;;
60492;SDS011;46341;51.290;-2.474;2022-10-18T13:09:29;4.63;;;1.88;;
60492;SDS011;46341;51.290;-2.474;2022-10-18T13:11:57;4.60;;;1.70;;
60492;SDS011;46341;51.290;-2.474;2022-10-18T13:14:32;4.20;;;1.50;;
60492;SDS011;46341;51.290;-2.474;2022-10-18T13:17:32;3.95;;;1.80;;
60492;SDS011;46341;51.290;-2.474;2022-10-18T13:27:53;2.78;;;1.50;;
60492;SDS011;46341;51.290;-2.474;2022-10-18T13:31:24;4.28;;;1.70;;
60492;SDS011;46341;51.290;-2.474;2022-10-18T13:41:13;3.13;;;1.20;;
60492;SDS011;46341;51.290;-2.474;2022-10-18T13:43:50;2.88;;;1.25;;
60492;SDS011;46341;51.290;-2.474;2022-10-18T13:46:21;2.38;;;1.00;;
60492;SDS011;46341;51.290;-2.474;2022-10-18T13:48:51;4.65;;;1.17;;
60492;SDS011;46341;51.290;-2.474;2022-10-18T13:53:59;5.30;;;0.80;;
60492;SDS011;46341;51.290;-2.474;2022-10-18T13:59:03;3.97;;;1.02;;
60492;SDS011;46341;51.290;-2.474;2022-10-18T14:06:35;4.05;;;1.00;;
60492;SDS011;46341;51.290;-2.474;2022-10-18T14:14:55;4.13;;;0.90;;
60492;SDS011;46341;51.290;-2.474;2022-10-18T14:17:37;5.20;;;1.50;;
60492;SDS011;46341;51.290;-2.474;2022-10-18T14:25:31;3.17;;;1.15;;
60492;SDS011;46341;51.290;-2.474;2022-10-18T14:28:14;5.80;;;1.02;;
60492;SDS011;46341;51.290;-2.474;2022-10-18T14:35:59;3.88;;;0.82;;
60492;SDS011;46341;51.290;-2.474;2022-10-18T14:38:26;2.70;;;0.98;;
60492;SDS011;46341;51.290;-2.474;2022-10-18T14:41:14;4.43;;;1.05;;
60492;SDS011;46341;51.290;-2.474;2022-10-18T14:43:41;3.97;;;0.98;;
60492;SDS011;46341;51.290;-2.474;2022-10-18T14:46:18;3.25;;;0.80;;
60492;SDS011;46341;51.290;-2.474;2022-10-18T14:48:52;3.00;;;0.95;;
60492;SDS011;46341;51.290;-2.474;2022-10-18T14:51:18;3.17;;;1.02;;
60492;SDS011;46341;51.290;-2.474;2022-10-18T14:53:45;3.53;;;0.98;;
60492;SDS011;46341;51.290;-2.474;2022-10-18T14:56:18;4.22;;;0.73;;
60492;SDS011;46341;51.290;-2.474;2022-10-18T14:58:45;4.03;;;0.90;;
60492;SDS011;46341;51.290;-2.474;2022-10-18T15:01:15;3.67;;;1.00;;
60492;SDS011;46341;51.290;-2.474;2022-10-18T15:03:43;4.95;;;1.20;;
60492;SDS011;46341;51.290;-2.474;2022-10-18T15:06:16;3.15;;;1.00;;
60492;SDS011;46341;51.290;-2.474;2022-10-18T15:08:45;4.60;;;1.35;;
60492;SDS011;46341;51.290;-2.474;2022-10-18T15:11:12;3.80;;;1.17;;
60492;SDS011;46341;51.290;-2.474;2022-10-18T15:13:45;4.60;;;0.93;;
60492;SDS011;46341;51.290;-2.474;2022-10-18T15:16:14;5.60;;;1.25;;
60492;SDS011;46341;51.290;-2.474;2022-10-18T15:18:42;4.35;;;0.90;;
60492;SDS011;46341;51.290;-2.474;2022-10-18T15:21:27;4.13;;;0.98;;
60492;SDS011;46341;51.290;-2.474;2022-10-18T15:23:54;5.20;;;1.40;;
60492;SDS011;46341;51.290;-2.474;2022-10-18T15:26:41;3.85;;;1.02;;
60492;SDS011;46341;51.290;-2.474;2022-10-18T15:29:14;3.38;;;1.00;;
60492;SDS011;46341;51.290;-2.474;2022-10-18T15:31:41;4.25;;;1.30;;
60492;SDS011;46341;51.290;-2.474;2022-10-18T15:34:09;5.72;;;1.10;;
60492;SDS011;46341;51.290;-2.474;2022-10-18T15:36:36;5.28;;;1.10;;
60492;SDS011;46341;51.290;-2.474;2022-10-18T15:39:19;3.97;;;1.17;;
60492;SDS011;46341;51.290;-2.474;2022-10-18T15:41:53;6.20;;;1.45;;
60492;SDS011;46341;51.290;-2.474;2022-10-18T15:44:24;4.53;;;1.20;;
60492;SDS011;46341;51.290;-2.474;2022-10-18T15:46:52;2.75;;;0.88;;
60492;SDS011;46341;51.290;-2.474;2022-10-18T15:51:49;4.85;;;1.60;;
60492;SDS011;46341;51.290;-2.474;2022-10-18T15:54:28;5.65;;;1.73;;
60492;SDS011;46341;51.290;-2.474;2022-10-18T15:56:54;4.00;;;1.27;;
60492;SDS011;46341;51.290;-2.474;2022-10-18T15:59:22;6.57;;;1.60;;
60492;SDS011;46341;51.290;-2.474;2022-10-18T16:01:49;6.10;;;1.90;;
60492;SDS011;46341;51.290;-2.474;2022-10-18T16:04:23;3.88;;;1.92;;
60492;SDS011;46341;51.290;-2.474;2022-10-18T16:06:50;5.78;;;2.45;;
60492;SDS011;46341;51.290;-2.474;2022-10-18T16:09:18;5.57;;;2.30;;
60492;SDS011;46341;51.290;-2.474;2022-10-18T16:11:44;6.47;;;2.30;;
60492;SDS011;46341;51.290;-2.474;2022-10-18T16:16:38;6.55;;;2.85;;
60492;SDS011;46341;51.290;-2.474;2022-10-18T16:19:05;6.13;;;2.55;;
60492;SDS011;46341;51.290;-2.474;2022-10-18T16:21:33;7.50;;;2.70;;
60492;SDS011;46341;51.290;-2.474;2022-10-18T16:24:00;8.57;;;2.92;;
60492;SDS011;46341;51.290;-2.474;2022-10-18T16:26:27;6.00;;;2.37;;
60492;SDS011;46341;51.290;-2.474;2022-10-18T16:28:54;5.22;;;2.45;;
60492;SDS011;46341;51.290;-2.474;2022-10-18T16:31:22;6.88;;;2.55;;
60492;SDS011;46341;51.290;-2.474;2022-10-18T16:33:49;5.78;;;2.50;;
60492;SDS011;46341;51.290;-2.474;2022-10-18T16:36:17;4.72;;;2.10;;
60492;SDS011;46341;51.290;-2.474;2022-10-18T16:38:44;5.78;;;2.20;;
60492;SDS011;46341;51.290;-2.474;2022-10-18T16:41:10;6.27;;;2.27;;
60492;SDS011;46341;51.290;-2.474;2022-10-18T16:43:38;4.95;;;2.33;;
60492;SDS011;46341;51.290;-2.474;2022-10-18T16:46:05;7.15;;;2.20;;
60492;SDS011;46341;51.290;-2.474;2022-10-18T16:48:32;6.38;;;2.45;;
60492;SDS011;46341;51.290;-2.474;2022-10-18T16:50:59;3.67;;;2.20;;
60492;SDS011;46341;51.290;-2.474;2022-10-18T16:53:25;6.60;;;2.33;;
60492;SDS011;46341;51.290;-2.474;2022-10-18T16:55:54;7.30;;;2.83;;
60492;SDS011;46341;51.290;-2.474;2022-10-18T16:58:21;6.38;;;2.83;;
60492;SDS011;46341;51.290;-2.474;2022-10-18T17:00:49;6.78;;;2.45;;
60492;SDS011;46341;51.290;-2.474;2022-10-18T17:03:16;7.07;;;2.38;;
60492;SDS011;46341;51.290;-2.474;2022-10-18T17:05:42;7.70;;;2.60;;
60492;SDS011;46341;51.290;-2.474;2022-10-18T17:08:17;6.60;;;2.53;;
60492;SDS011;46341;51.290;-2.474;2022-10-18T17:10:44;6.40;;;2.75;;
60492;SDS011;46341;51.290;-2.474;2022-10-18T17:13:11;6.00;;;2.90;;
60492;SDS011;46341;51.290;-2.474;2022-10-18T17:15:37;6.70;;;3.05;;
60492;SDS011;46341;51.290;-2.474;2022-10-18T17:18:08;5.13;;;2.50;;
60492;SDS011;46341;51.290;-2.474;2022-10-18T17:20:35;5.30;;;2.72;;
60492;SDS011;46341;51.290;-2.474;2022-10-18T17:23:01;6.50;;;2.40;;
60492;SDS011;46341;51.290;-2.474;2022-10-18T17:25:28;6.38;;;2.70;;
60492;SDS011;46341;51.290;-2.474;2022-10-18T17:27:59;5.75;;;2.58;;
60492;SDS011;46341;51.290;-2.474;2022-10-18T17:30:25;5.85;;;2.60;;
60492;SDS011;46341;51.290;-2.474;2022-10-18T17:32:52;5.57;;;2.88;;
60492;SDS011;46341;51.290;-2.474;2022-10-18T17:35:20;7.00;;;2.83;;
60492;SDS011;46341;51.290;-2.474;2022-10-18T17:37:47;8.25;;;2.70;;